createdAt,value
2022-08-31T00:00:53.816Z,9.57
2022-08-31T00:06:01.761Z,8.45
2022-08-31T00:11:03.630Z,8.75
2022-08-31T00:16:05.886Z,9.27
2022-08-31T00:21:07.817Z,7.70
2022-08-31T00:26:09.530Z,8.57
2022-08-31T00:31:11.467Z,9.38
2022-08-31T00:36:14.063Z,10.03
2022-08-31T00:41:19.969Z,10.52
2022-08-31T00:46:25.469Z,11.32
2022-08-31T00:51:29.847Z,12.02
2022-08-31T00:56:33.591Z,10.63
2022-08-31T01:01:35.379Z,11.20
2022-08-31T01:06:37.555Z,8.93
2022-08-31T01:11:41.203Z,11.70
2022-08-31T01:16:48.435Z,9.48
2022-08-31T01:22:06.787Z,11.07
2022-08-31T01:27:09.087Z,9.73
2022-08-31T01:32:11.229Z,10.07
2022-08-31T01:37:12.996Z,11.23
2022-08-31T01:42:19.549Z,11.98
2022-08-31T01:47:21.767Z,8.75
2022-08-31T01:52:27.963Z,8.10
2022-08-31T01:57:33.988Z,8.90
2022-08-31T02:02:59.794Z,9.38
2022-08-31T02:08:02.838Z,13.68
2022-08-31T02:13:05.290Z,10.50
2022-08-31T02:18:12.158Z,8.55
2022-08-31T02:23:14.292Z,10.35
2022-08-31T02:28:18.795Z,10.37
2022-08-31T02:33:20.669Z,9.63
2022-08-31T02:38:22.982Z,8.68
2022-08-31T02:43:25.847Z,9.82
2022-08-31T02:48:29.465Z,9.52
2022-08-31T02:53:34.164Z,9.32
2022-08-31T02:58:36.517Z,9.73
2022-08-31T03:03:38.792Z,10.57
2022-08-31T03:08:42.196Z,9.57
2022-08-31T03:13:44.097Z,10.60
2022-08-31T03:18:48.585Z,10.67
2022-08-31T03:23:50.415Z,10.98
2022-08-31T03:34:26.815Z,13.05
2022-08-31T03:39:28.506Z,9.82
2022-08-31T03:44:30.369Z,8.83
2022-08-31T03:49:32.490Z,13.10
2022-08-31T03:54:51.826Z,9.48
2022-08-31T03:59:55.373Z,10.10
2022-08-31T04:05:15.649Z,12.23
2022-08-31T04:10:17.367Z,9.93
2022-08-31T04:15:38.172Z,9.60
2022-08-31T04:20:58.588Z,11.50
2022-08-31T04:26:00.469Z,11.97
2022-08-31T04:31:08.924Z,9.45
2022-08-31T04:36:18.252Z,12.07
2022-08-31T04:41:22.975Z,12.52
2022-08-31T04:46:27.795Z,9.35
2022-08-31T04:51:35.416Z,9.93
2022-08-31T04:56:41.127Z,13.00
2022-08-31T05:01:45.351Z,9.20
2022-08-31T05:07:22.495Z,12.02
2022-08-31T05:12:24.225Z,10.43
2022-08-31T05:17:27.413Z,9.70
2022-08-31T05:22:30.087Z,11.48
2022-08-31T05:27:35.060Z,10.68
2022-08-31T05:32:37.809Z,13.60
2022-08-31T05:37:42.361Z,15.10
2022-08-31T05:42:44.319Z,11.55
2022-08-31T05:47:46.156Z,11.93
2022-08-31T05:52:48.397Z,13.68
2022-08-31T05:57:52.362Z,12.87
2022-08-31T06:02:54.220Z,15.05
2022-08-31T06:07:56.191Z,14.00
2022-08-31T06:12:58.629Z,12.50
2022-08-31T06:18:00.806Z,11.20
2022-08-31T06:23:07.286Z,20.48
2022-08-31T06:28:19.461Z,11.02
2022-08-31T06:33:21.474Z,14.83
2022-08-31T06:38:35.728Z,12.10
2022-08-31T06:43:59.764Z,13.68
2022-08-31T06:49:30.064Z,12.20
2022-08-31T06:54:32.318Z,9.45
2022-08-31T06:59:53.736Z,11.10
2022-08-31T07:05:24.675Z,14.23
2022-08-31T07:10:27.745Z,12.07
2022-08-31T07:15:29.878Z,10.13
2022-08-31T07:20:31.837Z,13.10
2022-08-31T07:25:36.962Z,11.07
2022-08-31T07:30:42.119Z,12.35
2022-08-31T07:35:45.868Z,12.50
2022-08-31T07:41:12.637Z,11.98
2022-08-31T07:46:14.763Z,11.73
2022-08-31T07:51:23.448Z,11.00
2022-08-31T07:56:43.593Z,11.52
2022-08-31T08:01:48.473Z,11.50
2022-08-31T08:06:55.937Z,9.20
2022-08-31T08:12:22.513Z,10.50
2022-08-31T08:22:54.981Z,18.65
2022-08-31T08:28:22.874Z,11.50
2022-08-31T08:33:33.498Z,9.23
2022-08-31T08:38:39.436Z,10.30
2022-08-31T08:43:52.504Z,10.18
2022-08-31T08:54:07.286Z,10.23
2022-08-31T08:59:17.235Z,10.50
2022-08-31T09:04:45.686Z,13.70
2022-08-31T09:10:37.080Z,13.63
2022-08-31T09:16:08.333Z,11.55
2022-08-31T09:21:22.467Z,10.23
2022-08-31T09:26:35.583Z,10.52
2022-08-31T09:31:43.580Z,10.57
2022-08-31T09:36:45.353Z,9.88
2022-08-31T09:41:48.772Z,10.60
2022-08-31T09:46:54.481Z,11.70
2022-08-31T09:52:20.961Z,9.60
2022-08-31T09:57:43.190Z,9.80
2022-08-31T10:02:46.186Z,8.73
2022-08-31T10:07:57.403Z,12.55
2022-08-31T10:13:05.218Z,8.93
2022-08-31T10:18:19.530Z,10.75
2022-08-31T10:23:54.139Z,9.35
2022-08-31T10:28:59.791Z,9.73
2022-08-31T10:34:31.560Z,11.98
2022-08-31T10:39:39.727Z,10.07
2022-08-31T10:44:56.186Z,11.73
2022-08-31T10:50:00.767Z,15.43
2022-08-31T10:55:21.929Z,9.85
2022-08-31T11:00:45.756Z,10.50
2022-08-31T11:06:01.247Z,9.32
2022-08-31T11:11:09.798Z,8.65
2022-08-31T11:16:32.941Z,11.95
2022-08-31T11:21:54.064Z,9.63
2022-08-31T11:26:59.287Z,10.10
2022-08-31T11:32:16.944Z,8.48
2022-08-31T11:37:50.860Z,12.75
2022-08-31T11:42:57.662Z,11.27
2022-08-31T11:48:00.507Z,8.02
2022-08-31T11:53:44.603Z,11.27
2022-08-31T11:58:53.300Z,12.32
2022-08-31T12:04:03.329Z,10.23
2022-08-31T12:09:41.487Z,10.02
2022-08-31T12:15:16.599Z,12.80
2022-08-31T12:21:02.221Z,10.85
2022-08-31T12:26:22.790Z,13.18
2022-08-31T12:38:08.957Z,12.90
2022-08-31T12:43:13.446Z,11.82
2022-08-31T12:48:17.862Z,14.13
2022-08-31T12:53:58.855Z,22.88
2022-08-31T12:59:06.328Z,17.63
2022-08-31T13:05:25.775Z,12.95
2022-08-31T13:10:32.314Z,13.27
2022-08-31T13:15:39.909Z,13.20
2022-08-31T13:20:44.898Z,18.75
2022-08-31T13:25:59.861Z,17.95
2022-08-31T13:31:05.540Z,16.88
2022-08-31T13:36:31.917Z,15.57
2022-08-31T13:41:40.449Z,18.45
2022-08-31T13:46:55.614Z,20.25
2022-08-31T13:51:57.861Z,20.92
2022-08-31T13:57:10.918Z,16.02
2022-08-31T14:02:15.456Z,17.55
2022-08-31T14:07:23.831Z,16.33
2022-08-31T14:13:00.945Z,15.27
2022-08-31T14:18:25.938Z,17.10
2022-08-31T14:23:40.198Z,19.40
2022-08-31T14:28:45.454Z,17.55
2022-08-31T14:33:51.224Z,18.10
2022-08-31T14:38:57.296Z,14.00
2022-08-31T14:44:09.401Z,14.93
2022-08-31T14:49:11.390Z,15.57
2022-08-31T14:54:15.978Z,16.27
2022-08-31T14:59:21.682Z,19.33
2022-08-31T15:04:25.145Z,14.82
2022-08-31T15:09:27.142Z,16.55
2022-08-31T15:14:30.712Z,14.18
2022-08-31T15:19:34.194Z,16.58
2022-08-31T15:24:44.807Z,14.25
2022-08-31T15:29:49.623Z,15.55
2022-08-31T15:34:57.787Z,15.60
2022-08-31T15:40:02.076Z,16.67
2022-08-31T15:45:06.945Z,16.75
2022-08-31T15:50:09.442Z,18.70
2022-08-31T15:55:11.950Z,18.17
2022-08-31T16:00:14.770Z,16.13
2022-08-31T16:05:16.998Z,19.30
2022-08-31T16:10:20.343Z,19.48
2022-08-31T16:15:24.918Z,15.25
2022-08-31T16:20:27.517Z,17.05
2022-08-31T16:25:47.893Z,17.52
2022-08-31T16:30:51.862Z,17.63
2022-08-31T16:35:53.837Z,15.48
2022-08-31T16:41:01.010Z,16.17
2022-08-31T16:46:18.882Z,15.20
2022-08-31T16:51:27.535Z,14.48
2022-08-31T16:56:33.371Z,14.43
2022-08-31T17:01:40.949Z,16.60
2022-08-31T17:06:45.034Z,14.98
2022-08-31T17:11:53.196Z,15.52
2022-08-31T17:16:57.964Z,14.30
2022-08-31T17:22:03.250Z,17.77
2022-08-31T17:27:09.566Z,15.02
2022-08-31T17:32:13.885Z,15.55
2022-08-31T17:37:16.501Z,17.92
2022-08-31T17:42:19.887Z,14.75
2022-08-31T17:47:23.845Z,15.82
2022-08-31T17:52:25.637Z,16.27
2022-08-31T17:57:29.289Z,13.17
2022-08-31T18:02:35.031Z,19.90
2022-08-31T18:07:36.986Z,18.65
2022-08-31T18:12:41.768Z,13.80
2022-08-31T18:17:43.862Z,13.07
2022-08-31T18:22:50.091Z,18.10
2022-08-31T18:27:56.234Z,13.10
2022-08-31T18:33:00.080Z,12.65
2022-08-31T18:38:02.958Z,13.80
2022-08-31T18:48:28.544Z,15.40
2022-08-31T18:53:32.424Z,19.48
2022-08-31T18:58:35.636Z,17.25
2022-08-31T19:03:39.212Z,27.38
2022-08-31T19:08:41.141Z,28.75
2022-08-31T19:13:43.668Z,24.57
2022-08-31T19:18:46.285Z,22.25
2022-08-31T19:23:48.970Z,22.58
2022-08-31T19:28:50.897Z,25.15
2022-08-31T19:33:57.365Z,21.17
2022-08-31T19:39:00.286Z,21.10
2022-08-31T19:44:08.211Z,16.85
2022-08-31T19:49:12.594Z,15.55
2022-08-31T19:54:14.734Z,14.82
2022-08-31T19:59:21.016Z,20.17
2022-08-31T20:04:26.975Z,15.02
2022-08-31T20:09:29.025Z,17.30
2022-08-31T20:14:31.940Z,19.15
2022-08-31T20:19:37.012Z,20.83
2022-08-31T20:24:43.995Z,21.60
2022-08-31T20:29:48.083Z,20.48
2022-08-31T20:39:53.549Z,24.52
2022-08-31T20:44:55.998Z,18.63
2022-08-31T20:50:00.259Z,19.75
2022-08-31T20:55:04.617Z,15.55
2022-08-31T21:00:10.189Z,19.20
2022-08-31T21:05:37.837Z,19.38
2022-08-31T21:10:37.546Z,18.30
2022-08-31T21:15:46.616Z,20.17
2022-08-31T21:20:48.866Z,21.63
2022-08-31T21:25:50.907Z,21.15
2022-08-31T21:31:06.250Z,19.02
2022-08-31T21:36:17.453Z,19.25
2022-08-31T21:41:20.819Z,24.83
2022-08-31T21:46:25.472Z,24.70
2022-08-31T21:51:45.999Z,16.60
2022-08-31T21:56:53.769Z,20.13
2022-08-31T22:02:00.395Z,23.15
2022-08-31T22:07:02.415Z,23.23
2022-08-31T22:12:07.118Z,18.43
2022-08-31T22:17:09.170Z,22.45
2022-08-31T22:22:12.677Z,20.33
2022-08-31T22:27:14.494Z,24.65
2022-08-31T22:32:16.331Z,17.00
2022-08-31T22:37:18.955Z,22.40
2022-08-31T22:42:20.730Z,18.95
2022-08-31T22:47:22.968Z,20.83
2022-08-31T22:52:24.851Z,21.27
2022-08-31T22:57:26.693Z,20.77
2022-08-31T23:02:30.929Z,15.83
2022-08-31T23:07:32.709Z,17.30
2022-08-31T23:12:34.597Z,22.67
2022-08-31T23:17:37.370Z,15.67
2022-08-31T23:22:39.335Z,22.67
2022-08-31T23:27:41.087Z,20.65
2022-08-31T23:32:44.515Z,18.88
2022-08-31T23:37:48.861Z,22.42
2022-08-31T23:42:50.965Z,20.13
2022-08-31T23:47:52.774Z,23.47
2022-08-31T23:52:54.526Z,23.97
2022-08-31T23:57:58.324Z,27.23
